sensor_id;sensor_type;location;lat;lon;timestamp;pressure;altitude;pressure_sealevel;temperature;humidity
6859;BME280;3468;42.824;23.240;2024-02-26T00:01:59;68014.59;;;6.46;100.00
6859;BME280;3468;42.824;23.240;2024-02-26T00:04:26;67930.03;;;6.10;100.00
6859;BME280;3468;42.824;23.240;2024-02-26T00:06:53;68005.22;;;6.40;100.00
6859;BME280;3468;42.824;23.240;2024-02-26T00:09:21;67970.47;;;6.36;100.00
6859;BME280;3468;42.824;23.240;2024-02-26T00:11:48;67989.03;;;6.22;100.00
6859;BME280;3468;42.824;23.240;2024-02-26T00:14:14;67961.03;;;6.19;100.00
6859;BME280;3468;42.824;23.240;2024-02-26T00:16:41;67986.19;;;6.19;100.00
6859;BME280;3468;42.824;23.240;2024-02-26T00:19:12;67990.41;;;6.21;100.00
6859;BME280;3468;42.824;23.240;2024-02-26T00:21:40;68009.50;;;6.24;100.00
6859;BME280;3468;42.824;23.240;2024-02-26T00:24:07;68042.53;;;6.27;100.00
6859;BME280;3468;42.824;23.240;2024-02-26T00:26:34;67999.00;;;6.28;100.00
6859;BME280;3468;42.824;23.240;2024-02-26T00:29:01;68005.75;;;6.30;100.00
6859;BME280;3468;42.824;23.240;2024-02-26T00:31:27;68012.50;;;6.31;100.00
6859;BME280;3468;42.824;23.240;2024-02-26T00:33:54;68047.97;;;6.40;100.00
6859;BME280;3468;42.824;23.240;2024-02-26T00:36:22;68015.38;;;6.34;100.00
6859;BME280;3468;42.824;23.240;2024-02-26T00:38:49;68013.63;;;6.32;100.00
6859;BME280;3468;42.824;23.240;2024-02-26T00:41:17;67983.09;;;6.19;100.00
6859;BME280;3468;42.824;23.240;2024-02-26T00:43:43;67982.88;;;5.93;100.00
6859;BME280;3468;42.824;23.240;2024-02-26T00:46:10;68020.38;;;6.23;100.00
6859;BME280;3468;42.824;23.240;2024-02-26T00:48:37;68036.16;;;6.28;100.00
6859;BME280;3468;42.824;23.240;2024-02-26T00:51:04;68034.22;;;6.28;100.00
6859;BME280;3468;42.824;23.240;2024-02-26T00:53:33;68005.75;;;6.30;100.00
6859;BME280;3468;42.824;23.240;2024-02-26T00:56:00;67984.47;;;6.29;100.00
6859;BME280;3468;42.824;23.240;2024-02-26T00:58:27;68006.84;;;6.48;100.00
6859;BME280;3468;42.824;23.240;2024-02-26T01:00:54;68007.75;;;6.51;100.00
6859;BME280;3468;42.824;23.240;2024-02-26T01:03:20;68009.13;;;6.50;100.00
6859;BME280;3468;42.824;23.240;2024-02-26T01:05:47;68006.63;;;6.50;100.00
6859;BME280;3468;42.824;23.240;2024-02-26T01:08:14;68027.44;;;6.55;100.00
6859;BME280;3468;42.824;23.240;2024-02-26T01:10:42;67987.63;;;6.51;100.00
6859;BME280;3468;42.824;23.240;2024-02-26T01:13:09;68077.22;;;6.65;100.00
6859;BME280;3468;42.824;23.240;2024-02-26T01:15:35;68004.47;;;6.63;100.00
6859;BME280;3468;42.824;23.240;2024-02-26T01:18:02;68026.66;;;6.57;100.00
6859;BME280;3468;42.824;23.240;2024-02-26T01:20:29;68052.81;;;6.53;100.00
6859;BME280;3468;42.824;23.240;2024-02-26T01:22:56;68030.53;;;6.56;100.00
6859;BME280;3468;42.824;23.240;2024-02-26T01:25:22;68001.34;;;6.52;100.00
6859;BME280;3468;42.824;23.240;2024-02-26T01:27:50;68037.16;;;6.53;100.00
6859;BME280;3468;42.824;23.240;2024-02-26T01:30:17;68039.88;;;6.51;100.00
6859;BME280;3468;42.824;23.240;2024-02-26T01:32:44;68047.19;;;6.53;100.00
6859;BME280;3468;42.824;23.240;2024-02-26T01:35:11;68047.44;;;6.51;100.00
6859;BME280;3468;42.824;23.240;2024-02-26T01:37:37;68051.19;;;6.45;100.00
6859;BME280;3468;42.824;23.240;2024-02-26T01:40:05;68030.84;;;6.47;100.00
6859;BME280;3468;42.824;23.240;2024-02-26T01:42:32;68052.06;;;6.37;100.00
6859;BME280;3468;42.824;23.240;2024-02-26T01:45:01;68011.16;;;6.43;100.00
6859;BME280;3468;42.824;23.240;2024-02-26T01:47:28;67976.16;;;6.30;100.00
6859;BME280;3468;42.824;23.240;2024-02-26T01:49:55;68035.88;;;6.47;100.00
6859;BME280;3468;42.824;23.240;2024-02-26T01:52:22;68056.56;;;6.48;100.00
6859;BME280;3468;42.824;23.240;2024-02-26T01:54:49;68010.19;;;6.29;100.00
6859;BME280;3468;42.824;23.240;2024-02-26T01:57:16;68038.72;;;6.50;100.00
6859;BME280;3468;42.824;23.240;2024-02-26T01:59:44;68020.47;;;6.56;100.00
6859;BME280;3468;42.824;23.240;2024-02-26T02:02:12;68048.84;;;6.60;100.00
6859;BME280;3468;42.824;23.240;2024-02-26T02:04:41;68047.59;;;6.66;100.00
6859;BME280;3468;42.824;23.240;2024-02-26T02:07:08;68026.34;;;6.65;100.00
6859;BME280;3468;42.824;23.240;2024-02-26T02:09:35;68034.22;;;6.67;100.00
6859;BME280;3468;42.824;23.240;2024-02-26T02:12:02;68057.34;;;6.74;100.00
6859;BME280;3468;42.824;23.240;2024-02-26T02:14:30;68012.22;;;6.61;100.00
6859;BME280;3468;42.824;23.240;2024-02-26T02:16:57;68036.31;;;6.82;100.00
6859;BME280;3468;42.824;23.240;2024-02-26T02:19:25;68046.94;;;6.83;100.00
6859;BME280;3468;42.824;23.240;2024-02-26T02:21:53;68049.81;;;6.85;100.00
6859;BME280;3468;42.824;23.240;2024-02-26T02:24:20;68085.50;;;6.81;100.00
6859;BME280;3468;42.824;23.240;2024-02-26T02:26:47;68032.03;;;6.59;100.00
6859;BME280;3468;42.824;23.240;2024-02-26T02:29:14;68043.28;;;6.82;100.00
6859;BME280;3468;42.824;23.240;2024-02-26T02:31:41;68088.38;;;6.84;100.00
6859;BME280;3468;42.824;23.240;2024-02-26T02:34:09;68070.84;;;6.77;100.00
6859;BME280;3468;42.824;23.240;2024-02-26T02:36:48;68051.75;;;6.85;100.00
6859;BME280;3468;42.824;23.240;2024-02-26T02:39:16;68069.38;;;6.85;100.00
6859;BME280;3468;42.824;23.240;2024-02-26T02:41:43;68064.81;;;6.81;100.00
6859;BME280;3468;42.824;23.240;2024-02-26T02:44:10;68096.00;;;6.77;100.00
6859;BME280;3468;42.824;23.240;2024-02-26T02:46:37;68022.75;;;6.57;100.00
6859;BME280;3468;42.824;23.240;2024-02-26T02:49:03;68091.31;;;6.80;100.00
6859;BME280;3468;42.824;23.240;2024-02-26T02:51:30;67992.66;;;6.51;100.00
6859;BME280;3468;42.824;23.240;2024-02-26T02:53:57;68065.25;;;6.77;100.00
6859;BME280;3468;42.824;23.240;2024-02-26T02:56:25;68025.25;;;6.57;100.00
6859;BME280;3468;42.824;23.240;2024-02-26T02:58:51;68026.81;;;6.72;100.00
6859;BME280;3468;42.824;23.240;2024-02-26T03:01:18;68042.81;;;6.75;100.00
6859;BME280;3468;42.824;23.240;2024-02-26T03:03:45;68049.00;;;6.76;100.00
6859;BME280;3468;42.824;23.240;2024-02-26T03:06:12;68049.69;;;6.81;100.00
6859;BME280;3468;42.824;23.240;2024-02-26T03:08:38;68036.88;;;6.83;100.00
6859;BME280;3468;42.824;23.240;2024-02-26T03:11:07;68051.69;;;6.63;100.00
6859;BME280;3468;42.824;23.240;2024-02-26T03:13:35;68021.78;;;6.83;100.00
6859;BME280;3468;42.824;23.240;2024-02-26T03:16:04;68073.16;;;6.90;100.00
6859;BME280;3468;42.824;23.240;2024-02-26T03:18:31;68053.50;;;6.58;100.00
6859;BME280;3468;42.824;23.240;2024-02-26T03:20:58;68103.97;;;7.01;100.00
6859;BME280;3468;42.824;23.240;2024-02-26T03:23:24;68054.34;;;7.06;100.00
6859;BME280;3468;42.824;23.240;2024-02-26T03:25:51;68038.31;;;7.14;100.00
6859;BME280;3468;42.824;23.240;2024-02-26T03:28:18;68110.41;;;7.11;100.00
6859;BME280;3468;42.824;23.240;2024-02-26T03:30:46;68089.59;;;7.17;100.00
6859;BME280;3468;42.824;23.240;2024-02-26T03:33:12;68099.47;;;7.19;100.00
6859;BME280;3468;42.824;23.240;2024-02-26T03:35:39;68112.38;;;7.22;100.00
6859;BME280;3468;42.824;23.240;2024-02-26T03:38:06;68100.72;;;7.25;100.00
6859;BME280;3468;42.824;23.240;2024-02-26T03:40:33;68099.34;;;7.26;100.00
6859;BME280;3468;42.824;23.240;2024-02-26T03:42:59;68085.50;;;7.20;100.00
6859;BME280;3468;42.824;23.240;2024-02-26T03:45:26;68099.47;;;7.19;100.00
6859;BME280;3468;42.824;23.240;2024-02-26T03:47:54;68074.72;;;7.15;100.00
6859;BME280;3468;42.824;23.240;2024-02-26T03:50:21;68041.06;;;7.12;100.00
6859;BME280;3468;42.824;23.240;2024-02-26T03:52:48;68094.53;;;7.13;100.00
6859;BME280;3468;42.824;23.240;2024-02-26T03:55:14;68092.56;;;7.13;100.00
6859;BME280;3468;42.824;23.240;2024-02-26T03:57:43;68097.84;;;7.11;100.00
6859;BME280;3468;42.824;23.240;2024-02-26T04:00:11;68068.50;;;7.03;100.00
6859;BME280;3468;42.824;23.240;2024-02-26T04:02:38;68081.56;;;6.99;100.00
6859;BME280;3468;42.824;23.240;2024-02-26T04:05:09;68097.53;;;6.92;100.00
6859;BME280;3468;42.824;23.240;2024-02-26T04:07:36;68064.47;;;6.89;100.00
6859;BME280;3468;42.824;23.240;2024-02-26T04:10:03;68060.00;;;6.90;100.00
6859;BME280;3468;42.824;23.240;2024-02-26T04:12:34;68061.03;;;6.86;100.00
6859;BME280;3468;42.824;23.240;2024-02-26T04:15:01;68035.88;;;6.86;100.00
6859;BME280;3468;42.824;23.240;2024-02-26T04:17:28;68054.28;;;6.85;100.00
6859;BME280;3468;42.824;23.240;2024-02-26T04:19:54;68083.91;;;6.84;100.00
6859;BME280;3468;42.824;23.240;2024-02-26T04:22:23;68024.06;;;6.85;100.00
6859;BME280;3468;42.824;23.240;2024-02-26T04:24:49;68070.16;;;6.83;100.00
6859;BME280;3468;42.824;23.240;2024-02-26T04:27:16;68073.72;;;6.80;100.00
6859;BME280;3468;42.824;23.240;2024-02-26T04:29:43;68042.94;;;6.79;100.00
6859;BME280;3468;42.824;23.240;2024-02-26T04:32:09;68032.75;;;6.75;100.00
6859;BME280;3468;42.824;23.240;2024-02-26T04:34:36;68047.13;;;6.70;100.00
6859;BME280;3468;42.824;23.240;2024-02-26T04:37:03;68019.47;;;6.70;100.00
6859;BME280;3468;42.824;23.240;2024-02-26T04:39:31;68047.38;;;6.68;100.00
6859;BME280;3468;42.824;23.240;2024-02-26T04:41:58;68045.06;;;6.66;100.00
6859;BME280;3468;42.824;23.240;2024-02-26T04:44:24;68046.88;;;6.61;100.00
6859;BME280;3468;42.824;23.240;2024-02-26T04:46:51;68048.38;;;6.54;100.00
6859;BME280;3468;42.824;23.240;2024-02-26T04:49:18;68050.00;;;6.72;100.00
6859;BME280;3468;42.824;23.240;2024-02-26T04:51:44;68031.59;;;6.74;100.00
6859;BME280;3468;42.824;23.240;2024-02-26T04:54:13;68013.47;;;6.45;100.00
6859;BME280;3468;42.824;23.240;2024-02-26T04:56:41;68043.03;;;6.73;100.00
6859;BME280;3468;42.824;23.240;2024-02-26T04:59:08;68078.31;;;6.84;100.00
6859;BME280;3468;42.824;23.240;2024-02-26T05:01:35;68071.09;;;6.86;100.00
6859;BME280;3468;42.824;23.240;2024-02-26T05:04:02;68085.03;;;6.85;100.00
6859;BME280;3468;42.824;23.240;2024-02-26T05:06:29;68050.72;;;6.77;100.00
6859;BME280;3468;42.824;23.240;2024-02-26T05:08:56;68070.53;;;6.86;100.00
6859;BME280;3468;42.824;23.240;2024-02-26T05:11:23;68056.56;;;6.87;100.00
6859;BME280;3468;42.824;23.240;2024-02-26T05:13:51;68067.78;;;6.88;100.00
6859;BME280;3468;42.824;23.240;2024-02-26T05:16:17;68093.88;;;6.91;100.00
6859;BME280;3468;42.824;23.240;2024-02-26T05:18:46;68072.72;;;6.94;100.00
6859;BME280;3468;42.824;23.240;2024-02-26T05:21:13;68070.78;;;6.95;100.00
6859;BME280;3468;42.824;23.240;2024-02-26T05:23:40;68044.25;;;6.96;100.00
6859;BME280;3468;42.824;23.240;2024-02-26T05:26:08;68085.44;;;6.98;100.00
6859;BME280;3468;42.824;23.240;2024-02-26T05:28:34;68069.75;;;6.98;100.00
6859;BME280;3468;42.824;23.240;2024-02-26T05:31:04;68086.72;;;7.04;100.00
6859;BME280;3468;42.824;23.240;2024-02-26T05:33:31;68008.97;;;6.85;100.00
6859;BME280;3468;42.824;23.240;2024-02-26T05:35:57;68070.94;;;7.10;100.00
6859;BME280;3468;42.824;23.240;2024-02-26T05:38:29;68120.03;;;7.15;100.00
6859;BME280;3468;42.824;23.240;2024-02-26T05:40:57;68101.38;;;7.19;100.00
6859;BME280;3468;42.824;23.240;2024-02-26T05:43:24;68075.41;;;7.20;100.00
6859;BME280;3468;42.824;23.240;2024-02-26T05:45:50;68104.38;;;7.26;100.00
6859;BME280;3468;42.824;23.240;2024-02-26T05:48:19;68103.34;;;7.29;100.00
6859;BME280;3468;42.824;23.240;2024-02-26T05:50:45;68099.25;;;7.32;100.00
6859;BME280;3468;42.824;23.240;2024-02-26T05:53:12;68103.25;;;7.36;100.00
6859;BME280;3468;42.824;23.240;2024-02-26T05:55:39;68129.72;;;7.41;100.00
6859;BME280;3468;42.824;23.240;2024-02-26T05:58:06;68123.69;;;7.44;100.00
6859;BME280;3468;42.824;23.240;2024-02-26T06:00:32;68125.19;;;7.48;100.00
6859;BME280;3468;42.824;23.240;2024-02-26T06:02:59;68102.16;;;7.06;100.00
6859;BME280;3468;42.824;23.240;2024-02-26T06:05:28;68119.91;;;7.50;100.00
6859;BME280;3468;42.824;23.240;2024-02-26T06:07:55;68143.06;;;7.57;100.00
6859;BME280;3468;42.824;23.240;2024-02-26T06:10:22;68141.78;;;7.51;100.00
6859;BME280;3468;42.824;23.240;2024-02-26T06:12:49;68140.44;;;7.63;100.00
6859;BME280;3468;42.824;23.240;2024-02-26T06:15:16;68104.34;;;7.65;100.00
6859;BME280;3468;42.824;23.240;2024-02-26T06:17:42;68075.97;;;7.10;100.00
6859;BME280;3468;42.824;23.240;2024-02-26T06:20:10;68077.50;;;7.46;100.00
6859;BME280;3468;42.824;23.240;2024-02-26T06:22:40;68122.72;;;7.31;100.00
6859;BME280;3468;42.824;23.240;2024-02-26T06:25:07;68095.91;;;7.23;100.00
6859;BME280;3468;42.824;23.240;2024-02-26T06:27:34;68066.63;;;6.87;100.00
6859;BME280;3468;42.824;23.240;2024-02-26T06:30:01;68107.50;;;7.26;100.00
6859;BME280;3468;42.824;23.240;2024-02-26T06:32:28;68115.16;;;7.31;100.00
6859;BME280;3468;42.824;23.240;2024-02-26T06:34:55;68083.38;;;6.95;100.00
6859;BME280;3468;42.824;23.240;2024-02-26T06:37:22;68136.28;;;7.44;100.00
6859;BME280;3468;42.824;23.240;2024-02-26T06:39:50;68105.47;;;7.44;100.00
6859;BME280;3468;42.824;23.240;2024-02-26T06:42:17;68105.22;;;7.46;100.00
6859;BME280;3468;42.824;23.240;2024-02-26T06:44:44;68151.88;;;7.51;100.00
6859;BME280;3468;42.824;23.240;2024-02-26T06:47:11;68131.94;;;7.60;100.00
6859;BME280;3468;42.824;23.240;2024-02-26T06:49:38;68157.41;;;7.69;100.00
6859;BME280;3468;42.824;23.240;2024-02-26T06:52:05;68164.41;;;7.80;100.00
6859;BME280;3468;42.824;23.240;2024-02-26T06:54:32;68156.06;;;7.92;100.00
6859;BME280;3468;42.824;23.240;2024-02-26T06:57:00;68132.34;;;7.95;100.00
6859;BME280;3468;42.824;23.240;2024-02-26T06:59:27;68197.44;;;7.99;100.00
6859;BME280;3468;42.824;23.240;2024-02-26T07:01:53;68144.97;;;8.06;100.00
6859;BME280;3468;42.824;23.240;2024-02-26T07:04:20;68200.25;;;8.19;100.00
6859;BME280;3468;42.824;23.240;2024-02-26T07:06:47;68233.63;;;8.30;100.00
6859;BME280;3468;42.824;23.240;2024-02-26T07:09:14;68189.50;;;8.47;100.00
6859;BME280;3468;42.824;23.240;2024-02-26T07:11:41;68136.16;;;8.23;100.00
6859;BME280;3468;42.824;23.240;2024-02-26T07:14:11;68257.78;;;8.73;100.00
6859;BME280;3468;42.824;23.240;2024-02-26T07:16:38;68258.59;;;8.82;100.00
6859;BME280;3468;42.824;23.240;2024-02-26T07:19:05;68253.78;;;8.91;100.00
6859;BME280;3468;42.824;23.240;2024-02-26T07:21:32;68246.66;;;8.98;100.00
6859;BME280;3468;42.824;23.240;2024-02-26T07:23:59;68232.66;;;8.99;100.00
6859;BME280;3468;42.824;23.240;2024-02-26T07:26:25;68306.16;;;9.08;100.00
6859;BME280;3468;42.824;23.240;2024-02-26T07:28:52;68245.41;;;8.93;100.00
6859;BME280;3468;42.824;23.240;2024-02-26T07:31:20;68279.63;;;9.24;100.00
6859;BME280;3468;42.824;23.240;2024-02-26T07:33:47;68307.41;;;9.35;100.00
6859;BME280;3468;42.824;23.240;2024-02-26T07:36:14;68269.28;;;9.26;100.00
6859;BME280;3468;42.824;23.240;2024-02-26T07:38:41;68307.88;;;9.53;100.00
6859;BME280;3468;42.824;23.240;2024-02-26T07:41:07;68312.69;;;9.66;100.00
6859;BME280;3468;42.824;23.240;2024-02-26T07:43:34;68371.22;;;9.79;100.00
6859;BME280;3468;42.824;23.240;2024-02-26T07:46:01;68380.66;;;9.96;100.00
6859;BME280;3468;42.824;23.240;2024-02-26T07:48:29;68366.19;;;10.12;100.00
6859;BME280;3468;42.824;23.240;2024-02-26T07:50:56;68371.34;;;10.27;100.00
6859;BME280;3468;42.824;23.240;2024-02-26T07:53:24;68340.34;;;10.37;100.00
6859;BME280;3468;42.824;23.240;2024-02-26T07:55:51;68406.53;;;10.51;100.00
6859;BME280;3468;42.824;23.240;2024-02-26T07:58:17;68416.63;;;10.62;100.00
6859;BME280;3468;42.824;23.240;2024-02-26T08:00:44;68451.72;;;10.70;100.00
6859;BME280;3468;42.824;23.240;2024-02-26T08:03:11;68432.25;;;10.79;100.00
6859;BME280;3468;42.824;23.240;2024-02-26T08:05:42;68464.63;;;10.90;100.00
6859;BME280;3468;42.824;23.240;2024-02-26T08:08:09;68456.97;;;11.01;100.00
6859;BME280;3468;42.824;23.240;2024-02-26T08:10:36;68468.00;;;11.14;100.00
6859;BME280;3468;42.824;23.240;2024-02-26T08:13:02;68477.09;;;11.18;100.00
6859;BME280;3468;42.824;23.240;2024-02-26T08:15:31;68477.34;;;11.27;100.00
6859;BME280;3468;42.824;23.240;2024-02-26T08:18:00;68437.47;;;11.21;100.00
6859;BME280;3468;42.824;23.240;2024-02-26T08:20:28;68495.88;;;11.47;100.00
6859;BME280;3468;42.824;23.240;2024-02-26T08:22:57;68523.38;;;11.55;100.00
6859;BME280;3468;42.824;23.240;2024-02-26T08:25:24;68517.94;;;11.64;100.00
6859;BME280;3468;42.824;23.240;2024-02-26T08:27:51;68502.28;;;11.57;100.00
6859;BME280;3468;42.824;23.240;2024-02-26T08:30:18;68505.72;;;11.71;100.00
6859;BME280;3468;42.824;23.240;2024-02-26T08:32:45;68526.94;;;11.74;100.00
6859;BME280;3468;42.824;23.240;2024-02-26T08:35:12;68538.91;;;11.80;100.00
6859;BME280;3468;42.824;23.240;2024-02-26T08:37:39;68525.06;;;11.79;100.00
6859;BME280;3468;42.824;23.240;2024-02-26T08:40:08;68516.41;;;11.82;100.00
6859;BME280;3468;42.824;23.240;2024-02-26T08:42:35;68494.19;;;11.72;100.00
6859;BME280;3468;42.824;23.240;2024-02-26T08:45:02;68405.94;;;11.09;100.00
6859;BME280;3468;42.824;23.240;2024-02-26T08:47:29;68541.16;;;12.03;100.00
6859;BME280;3468;42.824;23.240;2024-02-26T08:49:55;68537.81;;;11.94;100.00
6859;BME280;3468;42.824;23.240;2024-02-26T08:52:22;68539.31;;;11.97;100.00
6859;BME280;3468;42.824;23.240;2024-02-26T08:54:49;68544.84;;;12.04;100.00
6859;BME280;3468;42.824;23.240;2024-02-26T08:57:17;68510.31;;;12.12;100.00
6859;BME280;3468;42.824;23.240;2024-02-26T08:59:44;68558.31;;;12.14;100.00
6859;BME280;3468;42.824;23.240;2024-02-26T09:02:11;68550.59;;;12.09;100.00
6859;BME280;3468;42.824;23.240;2024-02-26T09:04:37;68564.69;;;11.97;100.00
6859;BME280;3468;42.824;23.240;2024-02-26T09:07:04;68552.00;;;11.97;100.00
6859;BME280;3468;42.824;23.240;2024-02-26T09:09:31;68562.41;;;11.96;100.00
6859;BME280;3468;42.824;23.240;2024-02-26T09:11:58;68542.28;;;12.04;100.00
6859;BME280;3468;42.824;23.240;2024-02-26T09:14:26;68554.78;;;11.96;100.00
6859;BME280;3468;42.824;23.240;2024-02-26T09:16:53;68539.75;;;12.04;100.00
6859;BME280;3468;42.824;23.240;2024-02-26T09:19:20;68546.84;;;11.93;100.00
6859;BME280;3468;42.824;23.240;2024-02-26T09:21:46;68559.56;;;12.19;100.00
6859;BME280;3468;42.824;23.240;2024-02-26T09:24:13;68590.81;;;12.29;100.00
6859;BME280;3468;42.824;23.240;2024-02-26T09:26:40;68602.94;;;12.28;100.00
6859;BME280;3468;42.824;23.240;2024-02-26T09:29:07;68583.28;;;12.33;100.00
6859;BME280;3468;42.824;23.240;2024-02-26T09:31:35;68584.56;;;12.38;100.00
6859;BME280;3468;42.824;23.240;2024-02-26T09:34:02;68600.47;;;12.43;100.00
6859;BME280;3468;42.824;23.240;2024-02-26T09:36:29;68607.03;;;12.47;100.00
6859;BME280;3468;42.824;23.240;2024-02-26T09:38:56;68574.41;;;12.38;100.00
6859;BME280;3468;42.824;23.240;2024-02-26T09:41:22;68580.66;;;12.29;100.00
6859;BME280;3468;42.824;23.240;2024-02-26T09:43:52;68615.63;;;12.39;100.00
6859;BME280;3468;42.824;23.240;2024-02-26T09:46:22;68564.09;;;12.45;100.00
6859;BME280;3468;42.824;23.240;2024-02-26T09:48:51;68593.25;;;12.61;100.00
6859;BME280;3468;42.824;23.240;2024-02-26T09:51:18;68633.84;;;12.83;100.00
6859;BME280;3468;42.824;23.240;2024-02-26T09:53:46;68659.91;;;12.99;100.00
6859;BME280;3468;42.824;23.240;2024-02-26T09:56:15;68685.13;;;13.27;100.00
6859;BME280;3468;42.824;23.240;2024-02-26T09:58:42;68674.88;;;13.38;100.00
6859;BME280;3468;42.824;23.240;2024-02-26T10:01:13;68689.91;;;13.40;100.00
6859;BME280;3468;42.824;23.240;2024-02-26T10:03:43;68684.75;;;13.35;100.00
6859;BME280;3468;42.824;23.240;2024-02-26T10:06:12;68663.91;;;13.39;100.00
6859;BME280;3468;42.824;23.240;2024-02-26T10:08:40;68650.47;;;13.19;100.00
6859;BME280;3468;42.824;23.240;2024-02-26T10:11:08;68700.00;;;13.35;100.00
6859;BME280;3468;42.824;23.240;2024-02-26T10:13:36;68657.00;;;13.33;100.00
6859;BME280;3468;42.824;23.240;2024-02-26T10:16:04;68718.81;;;13.43;100.00
6859;BME280;3468;42.824;23.240;2024-02-26T10:18:45;68653.59;;;13.61;100.00
6859;BME280;3468;42.824;23.240;2024-02-26T10:21:13;68699.88;;;13.83;100.00
6859;BME280;3468;42.824;23.240;2024-02-26T10:23:41;68746.81;;;14.06;100.00
6859;BME280;3468;42.824;23.240;2024-02-26T10:26:10;68734.06;;;14.06;100.00
6859;BME280;3468;42.824;23.240;2024-02-26T10:28:37;68735.63;;;14.14;100.00
6859;BME280;3468;42.824;23.240;2024-02-26T10:31:04;68748.63;;;14.12;99.78
6859;BME280;3468;42.824;23.240;2024-02-26T10:33:32;68748.78;;;14.21;100.00
6859;BME280;3468;42.824;23.240;2024-02-26T10:35:59;68769.38;;;14.30;100.00
6859;BME280;3468;42.824;23.240;2024-02-26T10:38:27;68709.59;;;13.87;100.00
6859;BME280;3468;42.824;23.240;2024-02-26T10:40:54;68759.19;;;14.04;99.37
6859;BME280;3468;42.824;23.240;2024-02-26T10:43:21;68763.56;;;14.09;99.22
6859;BME280;3468;42.824;23.240;2024-02-26T10:45:47;68696.81;;;13.98;97.11
6859;BME280;3468;42.824;23.240;2024-02-26T10:48:14;68733.91;;;13.86;95.77
6859;BME280;3468;42.824;23.240;2024-02-26T10:50:42;68735.78;;;14.07;94.31
6859;BME280;3468;42.824;23.240;2024-02-26T10:53:13;68761.03;;;14.09;95.56
6859;BME280;3468;42.824;23.240;2024-02-26T10:55:46;68766.88;;;14.19;93.75
6859;BME280;3468;42.824;23.240;2024-02-26T10:58:14;68715.66;;;13.79;95.55
6859;BME280;3468;42.824;23.240;2024-02-26T11:00:43;68756.28;;;14.27;94.93
6859;BME280;3468;42.824;23.240;2024-02-26T11:03:13;68741.00;;;14.27;94.47
6859;BME280;3468;42.824;23.240;2024-02-26T11:05:43;68798.56;;;14.31;92.80
6859;BME280;3468;42.824;23.240;2024-02-26T11:08:11;68782.28;;;14.39;93.72
6859;BME280;3468;42.824;23.240;2024-02-26T11:10:38;68773.97;;;14.34;93.76
6859;BME280;3468;42.824;23.240;2024-02-26T11:13:09;68762.78;;;14.26;93.31
6859;BME280;3468;42.824;23.240;2024-02-26T11:15:39;68772.75;;;14.28;92.75
6859;BME280;3468;42.824;23.240;2024-02-26T11:18:07;68712.31;;;14.38;94.57
6859;BME280;3468;42.824;23.240;2024-02-26T11:20:34;68801.28;;;14.40;94.09
6859;BME280;3468;42.824;23.240;2024-02-26T11:23:04;68789.84;;;14.34;93.67
6859;BME280;3468;42.824;23.240;2024-02-26T11:25:31;68766.81;;;14.30;92.83
6859;BME280;3468;42.824;23.240;2024-02-26T11:28:01;68776.78;;;14.32;93.50
6859;BME280;3468;42.824;23.240;2024-02-26T11:30:32;68767.25;;;14.37;92.86
6859;BME280;3468;42.824;23.240;2024-02-26T11:33:00;68747.75;;;14.40;92.26
6859;BME280;3468;42.824;23.240;2024-02-26T11:35:28;68797.19;;;14.47;93.21
6859;BME280;3468;42.824;23.240;2024-02-26T11:37:56;68799.81;;;14.51;92.29
6859;BME280;3468;42.824;23.240;2024-02-26T11:40:24;68787.06;;;14.36;92.49
6859;BME280;3468;42.824;23.240;2024-02-26T11:42:51;68787.25;;;14.45;93.57
6859;BME280;3468;42.824;23.240;2024-02-26T11:48:23;68786.84;;;14.53;91.25
6859;BME280;3468;42.824;23.240;2024-02-26T11:50:52;68800.81;;;14.44;91.22
6859;BME280;3468;42.824;23.240;2024-02-26T11:53:20;68742.44;;;14.42;90.38
6859;BME280;3468;42.824;23.240;2024-02-26T11:55:46;68797.34;;;14.41;90.97
6859;BME280;3468;42.824;23.240;2024-02-26T11:58:13;68784.59;;;14.41;90.61
6859;BME280;3468;42.824;23.240;2024-02-26T12:00:40;68773.66;;;14.46;91.24
6859;BME280;3468;42.824;23.240;2024-02-26T12:03:06;68771.97;;;14.45;89.32
6859;BME280;3468;42.824;23.240;2024-02-26T12:05:37;68809.75;;;14.38;89.46
6859;BME280;3468;42.824;23.240;2024-02-26T12:08:05;68752.81;;;14.24;90.25
6859;BME280;3468;42.824;23.240;2024-02-26T12:10:35;68770.63;;;14.35;89.84
6859;BME280;3468;42.824;23.240;2024-02-26T12:13:05;68766.50;;;14.43;90.16
6859;BME280;3468;42.824;23.240;2024-02-26T12:15:36;68793.50;;;14.46;90.09
6859;BME280;3468;42.824;23.240;2024-02-26T12:18:04;68777.31;;;14.58;89.94
6859;BME280;3468;42.824;23.240;2024-02-26T12:20:31;68784.13;;;14.60;88.74
6859;BME280;3468;42.824;23.240;2024-02-26T12:23:00;68800.69;;;14.65;88.21
6859;BME280;3468;42.824;23.240;2024-02-26T12:25:28;68806.94;;;14.66;87.94
6859;BME280;3468;42.824;23.240;2024-02-26T12:27:57;68794.44;;;14.64;87.56
6859;BME280;3468;42.824;23.240;2024-02-26T12:30:24;68821.50;;;14.72;85.44
6859;BME280;3468;42.824;23.240;2024-02-26T12:32:53;68848.59;;;14.95;87.92
6859;BME280;3468;42.824;23.240;2024-02-26T12:35:22;68843.78;;;15.09;87.00
6859;BME280;3468;42.824;23.240;2024-02-26T12:37:49;68862.25;;;15.25;85.00
6859;BME280;3468;42.824;23.240;2024-02-26T12:40:18;68908.34;;;15.18;84.47
6859;BME280;3468;42.824;23.240;2024-02-26T12:42:45;68920.28;;;15.61;84.78
6859;BME280;3468;42.824;23.240;2024-02-26T12:45:13;68886.41;;;15.71;83.90
6859;BME280;3468;42.824;23.240;2024-02-26T12:47:42;68835.31;;;15.26;80.51
6859;BME280;3468;42.824;23.240;2024-02-26T12:50:10;68856.97;;;15.16;82.17
6859;BME280;3468;42.824;23.240;2024-02-26T12:52:39;68888.59;;;15.23;82.95
6859;BME280;3468;42.824;23.240;2024-02-26T12:55:06;68869.91;;;15.25;79.54
6859;BME280;3468;42.824;23.240;2024-02-26T12:57:37;68874.28;;;15.46;79.24
6859;BME280;3468;42.824;23.240;2024-02-26T13:00:05;68912.28;;;15.43;76.63
6859;BME280;3468;42.824;23.240;2024-02-26T13:02:35;68881.94;;;15.30;77.01
6859;BME280;3468;42.824;23.240;2024-02-26T13:05:03;68881.28;;;15.26;76.30
6859;BME280;3468;42.824;23.240;2024-02-26T13:07:30;68815.44;;;15.11;75.45
6859;BME280;3468;42.824;23.240;2024-02-26T13:09:57;68884.44;;;15.41;76.18
6859;BME280;3468;42.824;23.240;2024-02-26T13:12:24;68867.88;;;15.51;76.77